sensor_id;sensor_type;location;lat;lon;timestamp;P1;durP1;ratioP1;P2;durP2;ratioP2
23990;SDS011;12205;50.600;4.608;2023-07-13T00:00:49;4.22;;;0.47;;
23990;SDS011;12205;50.600;4.608;2023-07-13T00:03:16;5.75;;;0.60;;
23990;SDS011;12205;50.600;4.608;2023-07-13T00:05:43;4.85;;;0.70;;
23990;SDS011;12205;50.600;4.608;2023-07-13T00:08:10;3.17;;;0.40;;
23990;SDS011;12205;50.600;4.608;2023-07-13T00:10:42;8.02;;;0.75;;
23990;SDS011;12205;50.600;4.608;2023-07-13T00:13:11;4.03;;;0.50;;
23990;SDS011;12205;50.600;4.608;2023-07-13T00:15:38;2.42;;;0.52;;
23990;SDS011;12205;50.600;4.608;2023-07-13T00:18:05;6.82;;;0.70;;
23990;SDS011;12205;50.600;4.608;2023-07-13T00:20:32;6.22;;;0.50;;
23990;SDS011;12205;50.600;4.608;2023-07-13T00:22:59;11.32;;;0.82;;
23990;SDS011;12205;50.600;4.608;2023-07-13T00:25:27;5.07;;;0.50;;
23990;SDS011;12205;50.600;4.608;2023-07-13T00:27:55;5.95;;;0.60;;
23990;SDS011;12205;50.600;4.608;2023-07-13T00:30:23;5.88;;;0.57;;
23990;SDS011;12205;50.600;4.608;2023-07-13T00:32:51;2.80;;;0.40;;
23990;SDS011;12205;50.600;4.608;2023-07-13T00:35:18;10.18;;;0.88;;
23990;SDS011;12205;50.600;4.608;2023-07-13T00:37:45;7.40;;;0.80;;
23990;SDS011;12205;50.600;4.608;2023-07-13T00:40:13;12.35;;;0.90;;
23990;SDS011;12205;50.600;4.608;2023-07-13T00:42:43;8.60;;;0.77;;
23990;SDS011;12205;50.600;4.608;2023-07-13T00:48:32;8.15;;;0.80;;
23990;SDS011;12205;50.600;4.608;2023-07-13T00:51:03;8.88;;;0.90;;
23990;SDS011;12205;50.600;4.608;2023-07-13T00:53:31;6.40;;;0.80;;
23990;SDS011;12205;50.600;4.608;2023-07-13T00:56:00;11.00;;;0.95;;
23990;SDS011;12205;50.600;4.608;2023-07-13T00:58:28;10.40;;;1.00;;
23990;SDS011;12205;50.600;4.608;2023-07-13T01:00:56;9.20;;;1.02;;
23990;SDS011;12205;50.600;4.608;2023-07-13T01:03:23;10.50;;;1.00;;
23990;SDS011;12205;50.600;4.608;2023-07-13T01:05:54;16.38;;;1.30;;
23990;SDS011;12205;50.600;4.608;2023-07-13T01:08:22;7.80;;;0.80;;
23990;SDS011;12205;50.600;4.608;2023-07-13T01:10:52;9.25;;;1.02;;
23990;SDS011;12205;50.600;4.608;2023-07-13T01:13:22;9.13;;;1.02;;
23990;SDS011;12205;50.600;4.608;2023-07-13T01:15:51;9.80;;;1.17;;
23990;SDS011;12205;50.600;4.608;2023-07-13T01:18:21;10.02;;;0.93;;
23990;SDS011;12205;50.600;4.608;2023-07-13T01:20:55;8.38;;;0.93;;
23990;SDS011;12205;50.600;4.608;2023-07-13T01:23:23;8.48;;;1.00;;
23990;SDS011;12205;50.600;4.608;2023-07-13T01:25:54;7.95;;;0.68;;
23990;SDS011;12205;50.600;4.608;2023-07-13T01:28:23;8.85;;;0.60;;
23990;SDS011;12205;50.600;4.608;2023-07-13T01:30:52;11.15;;;0.85;;
23990;SDS011;12205;50.600;4.608;2023-07-13T01:33:21;5.43;;;0.60;;
23990;SDS011;12205;50.600;4.608;2023-07-13T01:35:50;7.43;;;0.60;;
23990;SDS011;12205;50.600;4.608;2023-07-13T01:38:20;7.95;;;0.68;;
23990;SDS011;12205;50.600;4.608;2023-07-13T01:40:49;9.00;;;0.60;;
23990;SDS011;12205;50.600;4.608;2023-07-13T01:43:17;7.25;;;0.93;;
23990;SDS011;12205;50.600;4.608;2023-07-13T01:45:45;5.70;;;0.70;;
23990;SDS011;12205;50.600;4.608;2023-07-13T01:48:12;4.50;;;0.85;;
23990;SDS011;12205;50.600;4.608;2023-07-13T01:50:40;10.00;;;1.13;;
23990;SDS011;12205;50.600;4.608;2023-07-13T01:53:07;10.30;;;1.00;;
23990;SDS011;12205;50.600;4.608;2023-07-13T01:55:36;8.30;;;1.00;;
23990;SDS011;12205;50.600;4.608;2023-07-13T01:58:03;10.68;;;0.80;;
23990;SDS011;12205;50.600;4.608;2023-07-13T02:00:31;4.72;;;0.60;;
23990;SDS011;12205;50.600;4.608;2023-07-13T02:03:01;15.27;;;1.20;;
23990;SDS011;12205;50.600;4.608;2023-07-13T02:05:28;17.70;;;1.42;;
23990;SDS011;12205;50.600;4.608;2023-07-13T02:07:56;6.00;;;0.73;;
23990;SDS011;12205;50.600;4.608;2023-07-13T02:10:24;7.70;;;0.73;;
23990;SDS011;12205;50.600;4.608;2023-07-13T02:12:52;9.65;;;0.88;;
23990;SDS011;12205;50.600;4.608;2023-07-13T02:15:20;8.75;;;1.05;;
23990;SDS011;12205;50.600;4.608;2023-07-13T02:17:47;12.07;;;1.20;;
23990;SDS011;12205;50.600;4.608;2023-07-13T02:20:14;6.85;;;0.70;;
23990;SDS011;12205;50.600;4.608;2023-07-13T02:22:41;14.35;;;1.40;;
23990;SDS011;12205;50.600;4.608;2023-07-13T02:25:08;10.25;;;0.93;;
23990;SDS011;12205;50.600;4.608;2023-07-13T02:27:35;14.13;;;1.42;;
23990;SDS011;12205;50.600;4.608;2023-07-13T02:30:04;11.07;;;1.35;;
23990;SDS011;12205;50.600;4.608;2023-07-13T02:32:33;8.95;;;1.20;;
23990;SDS011;12205;50.600;4.608;2023-07-13T02:35:00;8.02;;;0.80;;
23990;SDS011;12205;50.600;4.608;2023-07-13T02:37:28;11.35;;;1.08;;
23990;SDS011;12205;50.600;4.608;2023-07-13T02:39:56;8.88;;;1.00;;
23990;SDS011;12205;50.600;4.608;2023-07-13T02:42:23;12.07;;;1.17;;
23990;SDS011;12205;50.600;4.608;2023-07-13T02:44:50;7.30;;;0.80;;
23990;SDS011;12205;50.600;4.608;2023-07-13T02:47:19;11.80;;;1.20;;
23990;SDS011;12205;50.600;4.608;2023-07-13T02:49:46;7.50;;;0.90;;
23990;SDS011;12205;50.600;4.608;2023-07-13T02:52:13;9.60;;;0.80;;
23990;SDS011;12205;50.600;4.608;2023-07-13T02:54:41;6.03;;;0.80;;
23990;SDS011;12205;50.600;4.608;2023-07-13T02:57:08;8.63;;;1.00;;
23990;SDS011;12205;50.600;4.608;2023-07-13T02:59:35;9.02;;;0.90;;
23990;SDS011;12205;50.600;4.608;2023-07-13T03:02:03;6.10;;;0.65;;
23990;SDS011;12205;50.600;4.608;2023-07-13T03:04:32;7.57;;;0.70;;
23990;SDS011;12205;50.600;4.608;2023-07-13T03:07:01;9.25;;;1.02;;
23990;SDS011;12205;50.600;4.608;2023-07-13T03:09:34;12.00;;;0.88;;
23990;SDS011;12205;50.600;4.608;2023-07-13T03:12:05;9.63;;;0.80;;
23990;SDS011;12205;50.600;4.608;2023-07-13T03:14:33;14.45;;;1.35;;
23990;SDS011;12205;50.600;4.608;2023-07-13T03:17:03;8.13;;;0.93;;
23990;SDS011;12205;50.600;4.608;2023-07-13T03:19:35;11.20;;;1.30;;
23990;SDS011;12205;50.600;4.608;2023-07-13T03:22:03;4.45;;;0.70;;
23990;SDS011;12205;50.600;4.608;2023-07-13T03:24:32;13.13;;;1.50;;
23990;SDS011;12205;50.600;4.608;2023-07-13T03:27:01;15.50;;;1.40;;
23990;SDS011;12205;50.600;4.608;2023-07-13T03:29:30;12.23;;;1.00;;
23990;SDS011;12205;50.600;4.608;2023-07-13T03:31:58;8.63;;;1.17;;
23990;SDS011;12205;50.600;4.608;2023-07-13T03:34:25;6.65;;;0.80;;
23990;SDS011;12205;50.600;4.608;2023-07-13T03:36:54;9.63;;;0.93;;
23990;SDS011;12205;50.600;4.608;2023-07-13T03:39:22;10.07;;;1.17;;
23990;SDS011;12205;50.600;4.608;2023-07-13T03:41:53;9.88;;;0.95;;
23990;SDS011;12205;50.600;4.608;2023-07-13T03:44:21;16.17;;;1.55;;
23990;SDS011;12205;50.600;4.608;2023-07-13T03:46:52;17.60;;;1.67;;
23990;SDS011;12205;50.600;4.608;2023-07-13T03:49:19;9.27;;;1.20;;
23990;SDS011;12205;50.600;4.608;2023-07-13T03:51:46;18.42;;;1.98;;
23990;SDS011;12205;50.600;4.608;2023-07-13T03:54:15;12.07;;;1.20;;
23990;SDS011;12205;50.600;4.608;2023-07-13T03:56:43;12.35;;;1.52;;
23990;SDS011;12205;50.600;4.608;2023-07-13T03:59:11;10.75;;;1.50;;
23990;SDS011;12205;50.600;4.608;2023-07-13T04:01:38;9.63;;;1.92;;
23990;SDS011;12205;50.600;4.608;2023-07-13T04:04:05;7.85;;;1.15;;
23990;SDS011;12205;50.600;4.608;2023-07-13T04:06:33;8.05;;;1.08;;
23990;SDS011;12205;50.600;4.608;2023-07-13T04:09:01;15.68;;;1.30;;
23990;SDS011;12205;50.600;4.608;2023-07-13T04:11:32;12.45;;;1.27;;
23990;SDS011;12205;50.600;4.608;2023-07-13T04:14:01;14.48;;;1.70;;
23990;SDS011;12205;50.600;4.608;2023-07-13T04:16:28;14.55;;;1.55;;
23990;SDS011;12205;50.600;4.608;2023-07-13T04:18:56;11.55;;;1.40;;
23990;SDS011;12205;50.600;4.608;2023-07-13T04:21:25;11.98;;;1.38;;
23990;SDS011;12205;50.600;4.608;2023-07-13T04:23:53;14.68;;;1.38;;
23990;SDS011;12205;50.600;4.608;2023-07-13T04:26:20;10.30;;;1.20;;
23990;SDS011;12205;50.600;4.608;2023-07-13T04:28:49;19.42;;;2.00;;
23990;SDS011;12205;50.600;4.608;2023-07-13T04:31:17;12.15;;;1.58;;
23990;SDS011;12205;50.600;4.608;2023-07-13T04:33:44;8.68;;;1.15;;
23990;SDS011;12205;50.600;4.608;2023-07-13T04:36:11;10.75;;;1.35;;
23990;SDS011;12205;50.600;4.608;2023-07-13T04:38:38;12.23;;;1.20;;
23990;SDS011;12205;50.600;4.608;2023-07-13T04:41:07;15.40;;;1.33;;
23990;SDS011;12205;50.600;4.608;2023-07-13T04:43:35;11.00;;;1.70;;
23990;SDS011;12205;50.600;4.608;2023-07-13T04:46:04;16.58;;;1.45;;
23990;SDS011;12205;50.600;4.608;2023-07-13T04:48:33;17.58;;;1.80;;
23990;SDS011;12205;50.600;4.608;2023-07-13T04:51:01;12.18;;;1.52;;
23990;SDS011;12205;50.600;4.608;2023-07-13T04:53:29;16.02;;;1.80;;
23990;SDS011;12205;50.600;4.608;2023-07-13T04:55:57;15.35;;;1.42;;
23990;SDS011;12205;50.600;4.608;2023-07-13T04:58:24;10.07;;;1.25;;
23990;SDS011;12205;50.600;4.608;2023-07-13T05:00:52;14.15;;;1.27;;
23990;SDS011;12205;50.600;4.608;2023-07-13T05:03:26;14.02;;;1.60;;
23990;SDS011;12205;50.600;4.608;2023-07-13T05:05:57;7.55;;;1.20;;
23990;SDS011;12205;50.600;4.608;2023-07-13T05:08:26;10.88;;;1.02;;
23990;SDS011;12205;50.600;4.608;2023-07-13T05:10:53;8.35;;;1.02;;
23990;SDS011;12205;50.600;4.608;2023-07-13T05:13:20;13.85;;;1.52;;
23990;SDS011;12205;50.600;4.608;2023-07-13T05:15:55;11.32;;;1.02;;
23990;SDS011;12205;50.600;4.608;2023-07-13T05:18:23;12.77;;;1.30;;
23990;SDS011;12205;50.600;4.608;2023-07-13T05:20:59;17.58;;;1.63;;
23990;SDS011;12205;50.600;4.608;2023-07-13T05:23:29;11.98;;;1.20;;
23990;SDS011;12205;50.600;4.608;2023-07-13T05:25:58;15.63;;;1.50;;
23990;SDS011;12205;50.600;4.608;2023-07-13T05:28:25;15.20;;;1.60;;
23990;SDS011;12205;50.600;4.608;2023-07-13T05:30:53;13.02;;;1.80;;
23990;SDS011;12205;50.600;4.608;2023-07-13T05:33:21;11.13;;;0.98;;
23990;SDS011;12205;50.600;4.608;2023-07-13T05:35:48;6.05;;;0.75;;
23990;SDS011;12205;50.600;4.608;2023-07-13T05:38:17;28.65;;;2.03;;
23990;SDS011;12205;50.600;4.608;2023-07-13T05:40:44;18.90;;;1.85;;
23990;SDS011;12205;50.600;4.608;2023-07-13T05:43:12;13.75;;;1.70;;
23990;SDS011;12205;50.600;4.608;2023-07-13T05:45:40;13.43;;;1.13;;
23990;SDS011;12205;50.600;4.608;2023-07-13T05:48:07;12.68;;;1.30;;
23990;SDS011;12205;50.600;4.608;2023-07-13T05:50:34;10.32;;;1.25;;
23990;SDS011;12205;50.600;4.608;2023-07-13T05:53:01;9.98;;;0.95;;
23990;SDS011;12205;50.600;4.608;2023-07-13T05:55:30;18.13;;;1.27;;
23990;SDS011;12205;50.600;4.608;2023-07-13T05:57:57;11.38;;;1.45;;
23990;SDS011;12205;50.600;4.608;2023-07-13T06:00:25;9.50;;;0.90;;
23990;SDS011;12205;50.600;4.608;2023-07-13T06:02:52;8.45;;;0.90;;
23990;SDS011;12205;50.600;4.608;2023-07-13T06:05:19;6.78;;;0.80;;
23990;SDS011;12205;50.600;4.608;2023-07-13T06:07:46;15.57;;;1.23;;
23990;SDS011;12205;50.600;4.608;2023-07-13T06:10:13;17.08;;;1.45;;
23990;SDS011;12205;50.600;4.608;2023-07-13T06:12:42;7.05;;;0.82;;
23990;SDS011;12205;50.600;4.608;2023-07-13T06:15:09;12.93;;;1.20;;
23990;SDS011;12205;50.600;4.608;2023-07-13T06:17:38;11.35;;;1.40;;
23990;SDS011;12205;50.600;4.608;2023-07-13T06:20:05;14.30;;;1.10;;
23990;SDS011;12205;50.600;4.608;2023-07-13T06:22:34;11.63;;;1.50;;
23990;SDS011;12205;50.600;4.608;2023-07-13T06:25:01;7.70;;;0.95;;
23990;SDS011;12205;50.600;4.608;2023-07-13T06:27:28;8.27;;;1.17;;
23990;SDS011;12205;50.600;4.608;2023-07-13T06:29:56;13.77;;;1.30;;
23990;SDS011;12205;50.600;4.608;2023-07-13T06:32:23;16.33;;;1.88;;
23990;SDS011;12205;50.600;4.608;2023-07-13T06:34:50;10.68;;;1.15;;
23990;SDS011;12205;50.600;4.608;2023-07-13T06:37:17;13.43;;;1.75;;
23990;SDS011;12205;50.600;4.608;2023-07-13T06:39:45;14.32;;;1.40;;
23990;SDS011;12205;50.600;4.608;2023-07-13T06:42:12;16.17;;;1.35;;
23990;SDS011;12205;50.600;4.608;2023-07-13T06:44:39;11.75;;;1.15;;
23990;SDS011;12205;50.600;4.608;2023-07-13T06:47:07;8.55;;;0.90;;
23990;SDS011;12205;50.600;4.608;2023-07-13T06:49:34;16.48;;;1.40;;
23990;SDS011;12205;50.600;4.608;2023-07-13T06:52:01;10.05;;;1.08;;
23990;SDS011;12205;50.600;4.608;2023-07-13T06:54:29;12.52;;;1.60;;
23990;SDS011;12205;50.600;4.608;2023-07-13T06:56:56;8.05;;;0.90;;
23990;SDS011;12205;50.600;4.608;2023-07-13T06:59:23;15.77;;;1.58;;
23990;SDS011;12205;50.600;4.608;2023-07-13T07:01:50;10.32;;;1.10;;
23990;SDS011;12205;50.600;4.608;2023-07-13T07:04:19;12.43;;;1.10;;
23990;SDS011;12205;50.600;4.608;2023-07-13T07:06:46;11.75;;;1.08;;
23990;SDS011;12205;50.600;4.608;2023-07-13T07:09:13;6.57;;;1.05;;
23990;SDS011;12205;50.600;4.608;2023-07-13T07:11:41;11.23;;;1.20;;
23990;SDS011;12205;50.600;4.608;2023-07-13T07:14:08;11.00;;;1.30;;
23990;SDS011;12205;50.600;4.608;2023-07-13T07:16:35;6.20;;;1.02;;
23990;SDS011;12205;50.600;4.608;2023-07-13T07:19:02;15.02;;;1.30;;
23990;SDS011;12205;50.600;4.608;2023-07-13T07:21:31;9.60;;;1.20;;
23990;SDS011;12205;50.600;4.608;2023-07-13T07:23:58;6.20;;;0.75;;
23990;SDS011;12205;50.600;4.608;2023-07-13T07:26:25;10.57;;;0.98;;
23990;SDS011;12205;50.600;4.608;2023-07-13T07:28:53;7.10;;;0.90;;
23990;SDS011;12205;50.600;4.608;2023-07-13T07:31:20;7.63;;;0.80;;
23990;SDS011;12205;50.600;4.608;2023-07-13T07:33:47;8.68;;;0.95;;
23990;SDS011;12205;50.600;4.608;2023-07-13T07:36:14;11.75;;;1.25;;
23990;SDS011;12205;50.600;4.608;2023-07-13T07:38:43;9.75;;;1.00;;
23990;SDS011;12205;50.600;4.608;2023-07-13T07:41:12;10.40;;;0.75;;
23990;SDS011;12205;50.600;4.608;2023-07-13T07:43:39;9.95;;;0.75;;
23990;SDS011;12205;50.600;4.608;2023-07-13T07:46:06;11.55;;;0.93;;
23990;SDS011;12205;50.600;4.608;2023-07-13T07:48:33;8.07;;;1.00;;
23990;SDS011;12205;50.600;4.608;2023-07-13T07:51:00;13.88;;;1.25;;
23990;SDS011;12205;50.600;4.608;2023-07-13T07:53:28;8.48;;;0.80;;
23990;SDS011;12205;50.600;4.608;2023-07-13T07:55:56;9.93;;;1.25;;
23990;SDS011;12205;50.600;4.608;2023-07-13T07:58:23;5.50;;;0.63;;
23990;SDS011;12205;50.600;4.608;2023-07-13T08:00:50;12.05;;;0.85;;
23990;SDS011;12205;50.600;4.608;2023-07-13T08:03:17;7.43;;;0.93;;
23990;SDS011;12205;50.600;4.608;2023-07-13T08:05:45;9.93;;;0.85;;
23990;SDS011;12205;50.600;4.608;2023-07-13T08:08:12;13.00;;;1.25;;
23990;SDS011;12205;50.600;4.608;2023-07-13T08:10:39;9.95;;;0.90;;
23990;SDS011;12205;50.600;4.608;2023-07-13T08:13:07;8.40;;;0.98;;
23990;SDS011;12205;50.600;4.608;2023-07-13T08:15:34;11.57;;;1.00;;
23990;SDS011;12205;50.600;4.608;2023-07-13T08:18:02;8.60;;;1.00;;
23990;SDS011;12205;50.600;4.608;2023-07-13T08:20:30;9.70;;;0.77;;
23990;SDS011;12205;50.600;4.608;2023-07-13T08:22:57;8.65;;;0.93;;
23990;SDS011;12205;50.600;4.608;2023-07-13T08:25:24;10.50;;;1.17;;
23990;SDS011;12205;50.600;4.608;2023-07-13T08:27:51;8.95;;;0.70;;
23990;SDS011;12205;50.600;4.608;2023-07-13T08:30:19;10.02;;;1.05;;
23990;SDS011;12205;50.600;4.608;2023-07-13T08:32:46;8.18;;;0.95;;
23990;SDS011;12205;50.600;4.608;2023-07-13T08:35:14;8.82;;;0.90;;
23990;SDS011;12205;50.600;4.608;2023-07-13T08:37:42;9.38;;;0.80;;
23990;SDS011;12205;50.600;4.608;2023-07-13T08:40:09;9.70;;;1.08;;
23990;SDS011;12205;50.600;4.608;2023-07-13T08:42:39;8.75;;;0.73;;
23990;SDS011;12205;50.600;4.608;2023-07-13T08:45:13;12.93;;;0.85;;
23990;SDS011;12205;50.600;4.608;2023-07-13T08:47:50;6.68;;;0.73;;
23990;SDS011;12205;50.600;4.608;2023-07-13T08:50:22;8.75;;;0.90;;
23990;SDS011;12205;50.600;4.608;2023-07-13T08:52:55;10.70;;;1.00;;
23990;SDS011;12205;50.600;4.608;2023-07-13T08:55:25;10.10;;;0.88;;
23990;SDS011;12205;50.600;4.608;2023-07-13T08:58:00;8.23;;;0.70;;
23990;SDS011;12205;50.600;4.608;2023-07-13T09:00:40;10.07;;;1.02;;
23990;SDS011;12205;50.600;4.608;2023-07-13T09:03:19;6.72;;;0.70;;
23990;SDS011;12205;50.600;4.608;2023-07-13T09:05:51;10.73;;;0.90;;
23990;SDS011;12205;50.600;4.608;2023-07-13T09:08:29;10.77;;;0.80;;
23990;SDS011;12205;50.600;4.608;2023-07-13T09:11:14;11.82;;;0.90;;
23990;SDS011;12205;50.600;4.608;2023-07-13T09:13:58;11.70;;;1.33;;
23990;SDS011;12205;50.600;4.608;2023-07-13T09:16:42;7.65;;;0.65;;
23990;SDS011;12205;50.600;4.608;2023-07-13T09:21:47;7.95;;;0.80;;
23990;SDS011;12205;50.600;4.608;2023-07-13T09:27:13;11.93;;;1.02;;
23990;SDS011;12205;50.600;4.608;2023-07-13T09:29:46;11.63;;;1.23;;
23990;SDS011;12205;50.600;4.608;2023-07-13T09:32:22;9.00;;;0.90;;
23990;SDS011;12205;50.600;4.608;2023-07-13T09:34:54;7.03;;;0.80;;
23990;SDS011;12205;50.600;4.608;2023-07-13T09:37:21;8.32;;;0.82;;
23990;SDS011;12205;50.600;4.608;2023-07-13T09:39:56;4.90;;;0.43;;
23990;SDS011;12205;50.600;4.608;2023-07-13T09:42:30;6.70;;;0.70;;
23990;SDS011;12205;50.600;4.608;2023-07-13T09:44:59;9.88;;;0.80;;
23990;SDS011;12205;50.600;4.608;2023-07-13T09:47:30;6.47;;;0.65;;
23990;SDS011;12205;50.600;4.608;2023-07-13T09:50:04;12.30;;;1.27;;
23990;SDS011;12205;50.600;4.608;2023-07-13T09:52:42;9.55;;;0.82;;
23990;SDS011;12205;50.600;4.608;2023-07-13T09:55:22;8.18;;;1.00;;
23990;SDS011;12205;50.600;4.608;2023-07-13T09:57:52;10.33;;;0.93;;
23990;SDS011;12205;50.600;4.608;2023-07-13T10:00:23;7.28;;;0.80;;
23990;SDS011;12205;50.600;4.608;2023-07-13T10:03:03;13.20;;;0.82;;
23990;SDS011;12205;50.600;4.608;2023-07-13T10:05:40;11.85;;;1.00;;
23990;SDS011;12205;50.600;4.608;2023-07-13T10:08:21;5.13;;;0.60;;
23990;SDS011;12205;50.600;4.608;2023-07-13T10:10:53;8.70;;;0.77;;
23990;SDS011;12205;50.600;4.608;2023-07-13T10:13:26;7.82;;;0.70;;
23990;SDS011;12205;50.600;4.608;2023-07-13T10:16:02;6.00;;;0.88;;
23990;SDS011;12205;50.600;4.608;2023-07-13T10:18:35;11.57;;;0.93;;
23990;SDS011;12205;50.600;4.608;2023-07-13T10:21:10;4.88;;;0.68;;
23990;SDS011;12205;50.600;4.608;2023-07-13T10:23:41;9.55;;;0.80;;
23990;SDS011;12205;50.600;4.608;2023-07-13T10:26:12;5.05;;;0.63;;
23990;SDS011;12205;50.600;4.608;2023-07-13T10:28:47;6.38;;;0.85;;
23990;SDS011;12205;50.600;4.608;2023-07-13T10:31:21;5.65;;;0.60;;
23990;SDS011;12205;50.600;4.608;2023-07-13T10:33:51;8.40;;;0.70;;
23990;SDS011;12205;50.600;4.608;2023-07-13T10:36:22;6.57;;;0.70;;
23990;SDS011;12205;50.600;4.608;2023-07-13T10:39:01;7.32;;;0.60;;
23990;SDS011;12205;50.600;4.608;2023-07-13T10:41:32;10.48;;;1.17;;
23990;SDS011;12205;50.600;4.608;2023-07-13T10:44:06;8.07;;;0.95;;
23990;SDS011;12205;50.600;4.608;2023-07-13T10:46:45;5.15;;;0.70;;
23990;SDS011;12205;50.600;4.608;2023-07-13T10:49:13;5.15;;;0.52;;
23990;SDS011;12205;50.600;4.608;2023-07-13T10:51:42;9.45;;;1.20;;
23990;SDS011;12205;50.600;4.608;2023-07-13T10:54:20;5.78;;;0.63;;
23990;SDS011;12205;50.600;4.608;2023-07-13T10:56:53;5.75;;;0.70;;
23990;SDS011;12205;50.600;4.608;2023-07-13T10:59:42;6.82;;;0.60;;
23990;SDS011;12205;50.600;4.608;2023-07-13T11:02:15;5.60;;;0.60;;
23990;SDS011;12205;50.600;4.608;2023-07-13T11:04:54;4.20;;;0.40;;
23990;SDS011;12205;50.600;4.608;2023-07-13T11:07:24;8.07;;;0.60;;
23990;SDS011;12205;50.600;4.608;2023-07-13T11:09:54;2.90;;;0.38;;
23990;SDS011;12205;50.600;4.608;2023-07-13T11:15:26;3.42;;;0.35;;
23990;SDS011;12205;50.600;4.608;2023-07-13T11:18:18;5.95;;;0.60;;
23990;SDS011;12205;50.600;4.608;2023-07-13T11:20:51;5.45;;;0.70;;
23990;SDS011;12205;50.600;4.608;2023-07-13T11:23:41;5.10;;;0.50;;
23990;SDS011;12205;50.600;4.608;2023-07-13T11:29:08;3.65;;;0.32;;
23990;SDS011;12205;50.600;4.608;2023-07-13T11:31:51;4.95;;;0.50;;
23990;SDS011;12205;50.600;4.608;2023-07-13T11:34:21;7.25;;;0.40;;
23990;SDS011;12205;50.600;4.608;2023-07-13T11:36:57;3.95;;;0.55;;
23990;SDS011;12205;50.600;4.608;2023-07-13T11:39:28;5.50;;;0.23;;
23990;SDS011;12205;50.600;4.608;2023-07-13T11:41:59;6.40;;;0.50;;
23990;SDS011;12205;50.600;4.608;2023-07-13T11:44:30;4.57;;;0.43;;
23990;SDS011;12205;50.600;4.608;2023-07-13T11:47:01;3.75;;;0.40;;
23990;SDS011;12205;50.600;4.608;2023-07-13T11:49:41;5.88;;;0.47;;
23990;SDS011;12205;50.600;4.608;2023-07-13T11:52:14;3.95;;;0.35;;
23990;SDS011;12205;50.600;4.608;2023-07-13T11:54:46;2.22;;;0.30;;
23990;SDS011;12205;50.600;4.608;2023-07-13T11:57:23;5.97;;;0.57;;
23990;SDS011;12205;50.600;4.608;2023-07-13T11:59:53;3.58;;;0.32;;
23990;SDS011;12205;50.600;4.608;2023-07-13T12:02:24;6.05;;;0.50;;
23990;SDS011;12205;50.600;4.608;2023-07-13T12:04:57;5.28;;;0.70;;
23990;SDS011;12205;50.600;4.608;2023-07-13T12:07:29;2.95;;;0.30;;
23990;SDS011;12205;50.600;4.608;2023-07-13T12:12:28;3.65;;;0.70;;
23990;SDS011;12205;50.600;4.608;2023-07-13T12:14:57;2.58;;;0.30;;
23990;SDS011;12205;50.600;4.608;2023-07-13T12:17:24;3.05;;;0.40;;
23990;SDS011;12205;50.600;4.608;2023-07-13T12:19:52;3.10;;;0.20;;
23990;SDS011;12205;50.600;4.608;2023-07-13T12:22:20;3.22;;;0.30;;
23990;SDS011;12205;50.600;4.608;2023-07-13T12:24:49;3.63;;;0.30;;
23990;SDS011;12205;50.600;4.608;2023-07-13T12:27:20;0.93;;;0.20;;
23990;SDS011;12205;50.600;4.608;2023-07-13T12:32:20;5.18;;;0.40;;
23990;SDS011;12205;50.600;4.608;2023-07-13T12:34:51;3.47;;;0.30;;
23990;SDS011;12205;50.600;4.608;2023-07-13T12:37:21;3.53;;;0.30;;
23990;SDS011;12205;50.600;4.608;2023-07-13T12:39:51;8.50;;;0.40;;
23990;SDS011;12205;50.600;4.608;2023-07-13T12:42:20;4.57;;;0.40;;
23990;SDS011;12205;50.600;4.608;2023-07-13T12:44:53;2.92;;;0.30;;
23990;SDS011;12205;50.600;4.608;2023-07-13T12:47:23;4.32;;;0.30;;
23990;SDS011;12205;50.600;4.608;2023-07-13T12:49:53;4.15;;;0.38;;
23990;SDS011;12205;50.600;4.608;2023-07-13T12:52:23;1.33;;;0.20;;
23990;SDS011;12205;50.600;4.608;2023-07-13T12:55:11;2.28;;;0.30;;
23990;SDS011;12205;50.600;4.608;2023-07-13T12:57:44;4.35;;;0.30;;
23990;SDS011;12205;50.600;4.608;2023-07-13T13:00:25;3.45;;;0.38;;
23990;SDS011;12205;50.600;4.608;2023-07-13T13:02:58;8.02;;;0.60;;
23990;SDS011;12205;50.600;4.608;2023-07-13T13:05:31;2.80;;;0.30;;
23990;SDS011;12205;50.600;4.608;2023-07-13T13:07:59;3.17;;;0.40;;
23990;SDS011;12205;50.600;4.608;2023-07-13T13:10:28;7.85;;;0.50;;
23990;SDS011;12205;50.600;4.608;2023-07-13T13:12:55;3.55;;;0.30;;
23990;SDS011;12205;50.600;4.608;2023-07-13T13:15:22;4.60;;;0.40;;
23990;SDS011;12205;50.600;4.608;2023-07-13T13:17:49;2.20;;;0.32;;
23990;SDS011;12205;50.600;4.608;2023-07-13T13:20:17;2.50;;;0.30;;
23990;SDS011;12205;50.600;4.608;2023-07-13T13:22:47;3.97;;;0.40;;
23990;SDS011;12205;50.600;4.608;2023-07-13T13:25:14;3.40;;;0.43;;
23990;SDS011;12205;50.600;4.608;2023-07-13T13:27:44;2.40;;;0.38;;
23990;SDS011;12205;50.600;4.608;2023-07-13T13:30:13;8.52;;;0.63;;
23990;SDS011;12205;50.600;4.608;2023-07-13T13:32:43;5.90;;;0.40;;
23990;SDS011;12205;50.600;4.608;2023-07-13T13:35:13;4.03;;;0.45;;
23990;SDS011;12205;50.600;4.608;2023-07-13T13:37:42;2.80;;;0.40;;
23990;SDS011;12205;50.600;4.608;2023-07-13T13:40:14;7.95;;;0.38;;
23990;SDS011;12205;50.600;4.608;2023-07-13T13:42:44;5.00;;;0.50;;
23990;SDS011;12205;50.600;4.608;2023-07-13T13:45:11;2.35;;;0.30;;
23990;SDS011;12205;50.600;4.608;2023-07-13T13:47:41;3.38;;;0.30;;
23990;SDS011;12205;50.600;4.608;2023-07-13T13:50:11;2.10;;;0.30;;
23990;SDS011;12205;50.600;4.608;2023-07-13T13:55:17;5.90;;;0.47;;
23990;SDS011;12205;50.600;4.608;2023-07-13T13:57:50;3.08;;;0.40;;
23990;SDS011;12205;50.600;4.608;2023-07-13T14:00:17;2.67;;;0.30;;
23990;SDS011;12205;50.600;4.608;2023-07-13T14:02:47;3.03;;;0.40;;
23990;SDS011;12205;50.600;4.608;2023-07-13T14:05:19;4.35;;;0.60;;
23990;SDS011;12205;50.600;4.608;2023-07-13T14:07:51;3.45;;;0.40;;
23990;SDS011;12205;50.600;4.608;2023-07-13T14:10:20;4.40;;;0.30;;
23990;SDS011;12205;50.600;4.608;2023-07-13T14:12:48;1.75;;;0.25;;
23990;SDS011;12205;50.600;4.608;2023-07-13T14:15:22;2.38;;;0.40;;
23990;SDS011;12205;50.600;4.608;2023-07-13T14:17:52;1.95;;;0.22;;
23990;SDS011;12205;50.600;4.608;2023-07-13T14:20:20;1.63;;;0.28;;
23990;SDS011;12205;50.600;4.608;2023-07-13T14:22:49;1.25;;;0.25;;
23990;SDS011;12205;50.600;4.608;2023-07-13T14:25:17;1.67;;;0.25;;
23990;SDS011;12205;50.600;4.608;2023-07-13T14:27:48;4.65;;;0.50;;
23990;SDS011;12205;50.600;4.608;2023-07-13T14:30:22;3.30;;;0.40;;
23990;SDS011;12205;50.600;4.608;2023-07-13T14:32:49;1.33;;;0.22;;
23990;SDS011;12205;50.600;4.608;2023-07-13T14:35:18;2.00;;;0.30;;
23990;SDS011;12205;50.600;4.608;2023-07-13T14:37:48;5.70;;;0.43;;
23990;SDS011;12205;50.600;4.608;2023-07-13T14:40:17;4.78;;;0.55;;
23990;SDS011;12205;50.600;4.608;2023-07-13T14:42:52;3.70;;;0.40;;
23990;SDS011;12205;50.600;4.608;2023-07-13T14:45:20;2.25;;;0.43;;
23990;SDS011;12205;50.600;4.608;2023-07-13T14:47:47;3.13;;;0.40;;
23990;SDS011;12205;50.600;4.608;2023-07-13T14:50:15;4.75;;;0.40;;
23990;SDS011;12205;50.600;4.608;2023-07-13T14:52:45;4.40;;;0.50;;
23990;SDS011;12205;50.600;4.608;2023-07-13T14:55:15;4.18;;;0.40;;
23990;SDS011;12205;50.600;4.608;2023-07-13T14:57:44;2.05;;;0.43;;
23990;SDS011;12205;50.600;4.608;2023-07-13T15:00:14;3.55;;;0.20;;
23990;SDS011;12205;50.600;4.608;2023-07-13T15:02:44;3.22;;;0.50;;
23990;SDS011;12205;50.600;4.608;2023-07-13T15:05:16;2.83;;;0.45;;
23990;SDS011;12205;50.600;4.608;2023-07-13T15:07:46;10.13;;;0.82;;
23990;SDS011;12205;50.600;4.608;2023-07-13T15:10:15;5.38;;;0.40;;
23990;SDS011;12205;50.600;4.608;2023-07-13T15:12:45;3.90;;;0.40;;
23990;SDS011;12205;50.600;4.608;2023-07-13T15:15:14;1.85;;;0.35;;
23990;SDS011;12205;50.600;4.608;2023-07-13T15:17:42;3.88;;;0.40;;
23990;SDS011;12205;50.600;4.608;2023-07-13T15:20:17;3.78;;;0.60;;